sensor_id;sensor_type;location;lat;lon;timestamp;P1;durP1;ratioP1;P2;durP2;ratioP2
34459;SDS011;20704;51.260;22.558;2022-09-02T00:01:01;1.90;;;1.10;;
34459;SDS011;20704;51.260;22.558;2022-09-02T00:03:29;1.90;;;0.93;;
34459;SDS011;20704;51.260;22.558;2022-09-02T00:05:59;1.75;;;0.90;;
34459;SDS011;20704;51.260;22.558;2022-09-02T00:08:26;2.25;;;0.98;;
34459;SDS011;20704;51.260;22.558;2022-09-02T00:10:53;5.25;;;1.05;;
34459;SDS011;20704;51.260;22.558;2022-09-02T00:13:19;3.33;;;1.50;;
34459;SDS011;20704;51.260;22.558;2022-09-02T00:15:46;2.90;;;0.85;;
34459;SDS011;20704;51.260;22.558;2022-09-02T00:18:13;3.30;;;1.17;;
34459;SDS011;20704;51.260;22.558;2022-09-02T00:20:42;1.63;;;0.90;;
34459;SDS011;20704;51.260;22.558;2022-09-02T00:23:10;2.67;;;1.10;;
34459;SDS011;20704;51.260;22.558;2022-09-02T00:25:37;1.50;;;0.77;;
34459;SDS011;20704;51.260;22.558;2022-09-02T00:28:04;3.80;;;0.93;;
34459;SDS011;20704;51.260;22.558;2022-09-02T00:30:32;2.28;;;0.82;;
34459;SDS011;20704;51.260;22.558;2022-09-02T00:32:59;2.25;;;0.70;;
34459;SDS011;20704;51.260;22.558;2022-09-02T00:35:26;3.28;;;0.68;;
34459;SDS011;20704;51.260;22.558;2022-09-02T00:37:52;2.47;;;0.60;;
34459;SDS011;20704;51.260;22.558;2022-09-02T00:40:18;1.50;;;0.63;;
34459;SDS011;20704;51.260;22.558;2022-09-02T00:42:45;4.15;;;2.25;;
34459;SDS011;20704;51.260;22.558;2022-09-02T00:45:12;1.08;;;0.60;;
34459;SDS011;20704;51.260;22.558;2022-09-02T00:47:39;1.33;;;0.70;;
34459;SDS011;20704;51.260;22.558;2022-09-02T00:50:07;2.67;;;1.23;;
34459;SDS011;20704;51.260;22.558;2022-09-02T00:52:39;2.13;;;1.00;;
34459;SDS011;20704;51.260;22.558;2022-09-02T00:57:51;2.60;;;0.88;;
34459;SDS011;20704;51.260;22.558;2022-09-02T01:00:23;2.42;;;0.80;;
34459;SDS011;20704;51.260;22.558;2022-09-02T01:02:54;1.52;;;0.55;;
34459;SDS011;20704;51.260;22.558;2022-09-02T01:05:24;1.42;;;0.90;;
34459;SDS011;20704;51.260;22.558;2022-09-02T01:07:54;2.17;;;0.98;;
34459;SDS011;20704;51.260;22.558;2022-09-02T01:10:22;1.75;;;0.50;;
34459;SDS011;20704;51.260;22.558;2022-09-02T01:13:00;2.45;;;1.10;;
34459;SDS011;20704;51.260;22.558;2022-09-02T01:15:36;2.60;;;0.75;;
34459;SDS011;20704;51.260;22.558;2022-09-02T01:18:09;1.88;;;0.75;;
34459;SDS011;20704;51.260;22.558;2022-09-02T01:20:39;1.35;;;0.85;;
34459;SDS011;20704;51.260;22.558;2022-09-02T01:23:05;0.88;;;0.60;;
34459;SDS011;20704;51.260;22.558;2022-09-02T01:25:32;3.85;;;1.00;;
34459;SDS011;20704;51.260;22.558;2022-09-02T01:28:00;4.57;;;0.98;;
34459;SDS011;20704;51.260;22.558;2022-09-02T01:30:27;2.15;;;1.10;;
34459;SDS011;20704;51.260;22.558;2022-09-02T01:32:53;2.38;;;0.70;;
34459;SDS011;20704;51.260;22.558;2022-09-02T01:35:20;2.38;;;0.73;;
34459;SDS011;20704;51.260;22.558;2022-09-02T01:37:47;1.77;;;0.90;;
34459;SDS011;20704;51.260;22.558;2022-09-02T01:40:14;1.02;;;0.90;;
34459;SDS011;20704;51.260;22.558;2022-09-02T01:42:42;2.47;;;0.65;;
34459;SDS011;20704;51.260;22.558;2022-09-02T01:45:09;2.25;;;0.77;;
34459;SDS011;20704;51.260;22.558;2022-09-02T01:47:36;4.03;;;0.90;;
34459;SDS011;20704;51.260;22.558;2022-09-02T01:50:06;2.28;;;1.40;;
34459;SDS011;20704;51.260;22.558;2022-09-02T01:55:00;2.33;;;0.90;;
34459;SDS011;20704;51.260;22.558;2022-09-02T01:57:26;2.35;;;1.00;;
34459;SDS011;20704;51.260;22.558;2022-09-02T01:59:53;1.15;;;0.80;;
34459;SDS011;20704;51.260;22.558;2022-09-02T02:02:20;2.22;;;1.13;;
34459;SDS011;20704;51.260;22.558;2022-09-02T02:04:47;2.35;;;0.80;;
34459;SDS011;20704;51.260;22.558;2022-09-02T02:07:15;2.35;;;1.00;;
34459;SDS011;20704;51.260;22.558;2022-09-02T02:09:43;1.60;;;0.60;;
34459;SDS011;20704;51.260;22.558;2022-09-02T02:12:12;1.58;;;0.82;;
34459;SDS011;20704;51.260;22.558;2022-09-02T02:14:40;2.50;;;0.65;;
34459;SDS011;20704;51.260;22.558;2022-09-02T02:17:06;3.50;;;0.90;;
34459;SDS011;20704;51.260;22.558;2022-09-02T02:19:32;1.80;;;0.80;;
34459;SDS011;20704;51.260;22.558;2022-09-02T02:21:59;1.13;;;0.55;;
34459;SDS011;20704;51.260;22.558;2022-09-02T02:24:25;3.92;;;0.90;;
34459;SDS011;20704;51.260;22.558;2022-09-02T02:26:51;3.50;;;1.13;;
34459;SDS011;20704;51.260;22.558;2022-09-02T02:29:19;1.52;;;0.90;;
34459;SDS011;20704;51.260;22.558;2022-09-02T02:31:46;2.88;;;1.08;;
34459;SDS011;20704;51.260;22.558;2022-09-02T02:34:12;1.35;;;0.55;;
34459;SDS011;20704;51.260;22.558;2022-09-02T02:36:39;1.50;;;0.80;;
34459;SDS011;20704;51.260;22.558;2022-09-02T02:39:07;10.45;;;2.13;;
34459;SDS011;20704;51.260;22.558;2022-09-02T02:41:35;1.65;;;1.02;;
34459;SDS011;20704;51.260;22.558;2022-09-02T02:44:03;2.63;;;0.95;;
34459;SDS011;20704;51.260;22.558;2022-09-02T02:46:32;2.75;;;1.38;;
34459;SDS011;20704;51.260;22.558;2022-09-02T02:49:00;3.03;;;0.95;;
34459;SDS011;20704;51.260;22.558;2022-09-02T02:51:27;5.32;;;1.00;;
34459;SDS011;20704;51.260;22.558;2022-09-02T02:53:54;3.05;;;1.20;;
34459;SDS011;20704;51.260;22.558;2022-09-02T02:56:21;3.50;;;1.27;;
34459;SDS011;20704;51.260;22.558;2022-09-02T02:58:49;1.27;;;0.65;;
34459;SDS011;20704;51.260;22.558;2022-09-02T03:01:16;3.08;;;0.63;;
34459;SDS011;20704;51.260;22.558;2022-09-02T03:03:42;3.00;;;0.98;;
34459;SDS011;20704;51.260;22.558;2022-09-02T03:06:09;2.40;;;1.10;;
34459;SDS011;20704;51.260;22.558;2022-09-02T03:08:35;1.73;;;0.80;;
34459;SDS011;20704;51.260;22.558;2022-09-02T03:11:03;3.00;;;0.90;;
34459;SDS011;20704;51.260;22.558;2022-09-02T03:13:33;1.63;;;0.75;;
34459;SDS011;20704;51.260;22.558;2022-09-02T03:16:02;3.85;;;1.40;;
34459;SDS011;20704;51.260;22.558;2022-09-02T03:18:32;1.50;;;0.68;;
34459;SDS011;20704;51.260;22.558;2022-09-02T03:20:59;3.72;;;1.13;;
34459;SDS011;20704;51.260;22.558;2022-09-02T03:23:25;7.68;;;1.20;;
34459;SDS011;20704;51.260;22.558;2022-09-02T03:25:52;1.95;;;1.05;;
34459;SDS011;20704;51.260;22.558;2022-09-02T03:28:32;1.75;;;1.10;;
34459;SDS011;20704;51.260;22.558;2022-09-02T03:30:59;8.20;;;1.10;;
34459;SDS011;20704;51.260;22.558;2022-09-02T03:33:26;3.53;;;1.00;;
34459;SDS011;20704;51.260;22.558;2022-09-02T03:35:53;2.92;;;1.27;;
34459;SDS011;20704;51.260;22.558;2022-09-02T03:38:19;5.40;;;1.38;;
34459;SDS011;20704;51.260;22.558;2022-09-02T03:40:46;2.78;;;1.27;;
34459;SDS011;20704;51.260;22.558;2022-09-02T03:43:12;2.17;;;1.08;;
34459;SDS011;20704;51.260;22.558;2022-09-02T03:45:40;4.15;;;1.48;;
34459;SDS011;20704;51.260;22.558;2022-09-02T03:48:10;3.75;;;1.20;;
34459;SDS011;20704;51.260;22.558;2022-09-02T03:50:38;1.38;;;0.85;;
34459;SDS011;20704;51.260;22.558;2022-09-02T03:53:08;2.55;;;1.20;;
34459;SDS011;20704;51.260;22.558;2022-09-02T03:55:36;2.15;;;1.00;;
34459;SDS011;20704;51.260;22.558;2022-09-02T03:58:03;2.78;;;1.20;;
34459;SDS011;20704;51.260;22.558;2022-09-02T04:00:30;2.53;;;1.25;;
34459;SDS011;20704;51.260;22.558;2022-09-02T04:03:01;1.50;;;1.00;;
34459;SDS011;20704;51.260;22.558;2022-09-02T04:05:29;2.35;;;1.25;;
34459;SDS011;20704;51.260;22.558;2022-09-02T04:07:57;3.15;;;1.10;;
34459;SDS011;20704;51.260;22.558;2022-09-02T04:10:24;3.75;;;1.10;;
34459;SDS011;20704;51.260;22.558;2022-09-02T04:12:51;3.33;;;1.23;;
34459;SDS011;20704;51.260;22.558;2022-09-02T04:15:18;2.22;;;1.38;;
34459;SDS011;20704;51.260;22.558;2022-09-02T04:17:46;2.17;;;1.48;;
34459;SDS011;20704;51.260;22.558;2022-09-02T04:20:14;2.00;;;1.35;;
34459;SDS011;20704;51.260;22.558;2022-09-02T04:22:42;1.67;;;1.15;;
34459;SDS011;20704;51.260;22.558;2022-09-02T04:25:08;4.18;;;1.77;;
34459;SDS011;20704;51.260;22.558;2022-09-02T04:27:36;5.40;;;1.52;;
34459;SDS011;20704;51.260;22.558;2022-09-02T04:30:03;1.60;;;1.20;;
34459;SDS011;20704;51.260;22.558;2022-09-02T04:32:33;4.30;;;1.00;;
34459;SDS011;20704;51.260;22.558;2022-09-02T04:35:00;2.25;;;1.23;;
34459;SDS011;20704;51.260;22.558;2022-09-02T04:37:27;8.75;;;1.42;;
34459;SDS011;20704;51.260;22.558;2022-09-02T04:39:54;2.78;;;1.88;;
34459;SDS011;20704;51.260;22.558;2022-09-02T04:42:21;3.30;;;1.23;;
34459;SDS011;20704;51.260;22.558;2022-09-02T04:44:48;7.00;;;1.58;;
34459;SDS011;20704;51.260;22.558;2022-09-02T04:47:14;2.78;;;1.10;;
34459;SDS011;20704;51.260;22.558;2022-09-02T04:49:41;4.45;;;1.27;;
34459;SDS011;20704;51.260;22.558;2022-09-02T04:52:07;3.65;;;1.35;;
34459;SDS011;20704;51.260;22.558;2022-09-02T04:54:37;3.33;;;1.92;;
34459;SDS011;20704;51.260;22.558;2022-09-02T04:57:05;6.60;;;1.30;;
34459;SDS011;20704;51.260;22.558;2022-09-02T04:59:31;1.85;;;0.95;;
34459;SDS011;20704;51.260;22.558;2022-09-02T05:02:05;3.30;;;1.30;;
34459;SDS011;20704;51.260;22.558;2022-09-02T05:04:31;4.35;;;1.30;;
34459;SDS011;20704;51.260;22.558;2022-09-02T05:06:59;15.70;;;1.88;;
34459;SDS011;20704;51.260;22.558;2022-09-02T05:09:28;2.05;;;1.02;;
34459;SDS011;20704;51.260;22.558;2022-09-02T05:11:58;1.73;;;1.00;;
34459;SDS011;20704;51.260;22.558;2022-09-02T05:14:31;3.55;;;1.30;;
34459;SDS011;20704;51.260;22.558;2022-09-02T05:17:00;5.38;;;2.45;;
34459;SDS011;20704;51.260;22.558;2022-09-02T05:19:27;4.72;;;1.13;;
34459;SDS011;20704;51.260;22.558;2022-09-02T05:21:54;2.35;;;1.58;;
34459;SDS011;20704;51.260;22.558;2022-09-02T05:24:28;2.88;;;1.30;;
34459;SDS011;20704;51.260;22.558;2022-09-02T05:26:58;2.90;;;1.20;;
34459;SDS011;20704;51.260;22.558;2022-09-02T05:29:24;2.50;;;1.10;;
34459;SDS011;20704;51.260;22.558;2022-09-02T05:31:52;3.45;;;1.02;;
34459;SDS011;20704;51.260;22.558;2022-09-02T05:34:21;11.02;;;1.73;;
34459;SDS011;20704;51.260;22.558;2022-09-02T05:36:49;11.00;;;2.05;;
34459;SDS011;20704;51.260;22.558;2022-09-02T05:39:16;5.85;;;2.67;;
34459;SDS011;20704;51.260;22.558;2022-09-02T05:41:42;4.05;;;1.42;;
34459;SDS011;20704;51.260;22.558;2022-09-02T05:44:10;9.05;;;1.55;;
34459;SDS011;20704;51.260;22.558;2022-09-02T05:46:37;6.63;;;1.45;;
34459;SDS011;20704;51.260;22.558;2022-09-02T05:49:04;7.70;;;1.58;;
34459;SDS011;20704;51.260;22.558;2022-09-02T05:51:52;4.95;;;1.77;;
34459;SDS011;20704;51.260;22.558;2022-09-02T05:54:24;7.88;;;2.17;;
34459;SDS011;20704;51.260;22.558;2022-09-02T05:56:54;10.32;;;2.38;;
34459;SDS011;20704;51.260;22.558;2022-09-02T05:59:24;7.65;;;2.00;;
34459;SDS011;20704;51.260;22.558;2022-09-02T06:01:54;2.72;;;0.98;;
34459;SDS011;20704;51.260;22.558;2022-09-02T06:04:21;22.38;;;1.40;;
34459;SDS011;20704;51.260;22.558;2022-09-02T06:06:48;4.75;;;1.20;;
34459;SDS011;20704;51.260;22.558;2022-09-02T06:09:17;2.50;;;1.05;;
34459;SDS011;20704;51.260;22.558;2022-09-02T06:11:46;4.63;;;1.15;;
34459;SDS011;20704;51.260;22.558;2022-09-02T06:14:18;2.90;;;1.67;;
34459;SDS011;20704;51.260;22.558;2022-09-02T06:16:48;3.08;;;1.50;;
34459;SDS011;20704;51.260;22.558;2022-09-02T06:19:23;4.32;;;1.30;;
34459;SDS011;20704;51.260;22.558;2022-09-02T06:21:52;5.60;;;1.60;;
34459;SDS011;20704;51.260;22.558;2022-09-02T06:24:22;4.45;;;1.35;;
34459;SDS011;20704;51.260;22.558;2022-09-02T06:26:50;4.82;;;1.42;;
34459;SDS011;20704;51.260;22.558;2022-09-02T06:29:20;5.18;;;1.00;;
34459;SDS011;20704;51.260;22.558;2022-09-02T06:31:48;3.35;;;1.33;;
34459;SDS011;20704;51.260;22.558;2022-09-02T06:34:17;11.30;;;1.30;;
34459;SDS011;20704;51.260;22.558;2022-09-02T06:36:47;9.77;;;1.63;;
34459;SDS011;20704;51.260;22.558;2022-09-02T06:39:18;2.40;;;1.20;;
34459;SDS011;20704;51.260;22.558;2022-09-02T06:41:46;3.83;;;1.52;;
34459;SDS011;20704;51.260;22.558;2022-09-02T06:44:14;3.92;;;1.20;;
34459;SDS011;20704;51.260;22.558;2022-09-02T06:46:47;9.13;;;1.20;;
34459;SDS011;20704;51.260;22.558;2022-09-02T06:49:17;5.85;;;1.40;;
34459;SDS011;20704;51.260;22.558;2022-09-02T06:51:48;3.65;;;1.42;;
34459;SDS011;20704;51.260;22.558;2022-09-02T06:54:17;2.05;;;1.13;;
34459;SDS011;20704;51.260;22.558;2022-09-02T06:56:48;2.70;;;1.38;;
34459;SDS011;20704;51.260;22.558;2022-09-02T06:59:19;2.38;;;1.13;;
34459;SDS011;20704;51.260;22.558;2022-09-02T07:01:50;2.70;;;1.25;;
34459;SDS011;20704;51.260;22.558;2022-09-02T07:04:18;3.22;;;1.65;;
34459;SDS011;20704;51.260;22.558;2022-09-02T07:07:06;1.73;;;1.10;;
34459;SDS011;20704;51.260;22.558;2022-09-02T07:09:38;2.22;;;1.42;;
34459;SDS011;20704;51.260;22.558;2022-09-02T07:12:10;4.38;;;1.30;;
34459;SDS011;20704;51.260;22.558;2022-09-02T07:14:44;8.82;;;1.83;;
34459;SDS011;20704;51.260;22.558;2022-09-02T07:17:13;3.80;;;1.20;;
34459;SDS011;20704;51.260;22.558;2022-09-02T07:19:48;10.02;;;1.98;;
34459;SDS011;20704;51.260;22.558;2022-09-02T07:22:15;5.18;;;1.33;;
34459;SDS011;20704;51.260;22.558;2022-09-02T07:24:42;7.65;;;2.08;;
34459;SDS011;20704;51.260;22.558;2022-09-02T07:27:09;1.85;;;0.85;;
34459;SDS011;20704;51.260;22.558;2022-09-02T07:29:37;2.78;;;0.98;;
34459;SDS011;20704;51.260;22.558;2022-09-02T07:32:06;2.45;;;0.95;;
34459;SDS011;20704;51.260;22.558;2022-09-02T07:34:32;8.32;;;1.08;;
34459;SDS011;20704;51.260;22.558;2022-09-02T07:37:00;1.45;;;0.73;;
34459;SDS011;20704;51.260;22.558;2022-09-02T07:39:27;3.30;;;0.68;;
34459;SDS011;20704;51.260;22.558;2022-09-02T07:41:54;3.30;;;0.70;;
34459;SDS011;20704;51.260;22.558;2022-09-02T07:44:21;2.55;;;0.60;;
34459;SDS011;20704;51.260;22.558;2022-09-02T07:46:50;4.10;;;0.90;;
34459;SDS011;20704;51.260;22.558;2022-09-02T07:49:19;2.33;;;0.65;;
34459;SDS011;20704;51.260;22.558;2022-09-02T07:51:48;6.43;;;1.10;;
34459;SDS011;20704;51.260;22.558;2022-09-02T07:54:17;2.13;;;1.02;;
34459;SDS011;20704;51.260;22.558;2022-09-02T07:56:46;1.50;;;0.40;;
34459;SDS011;20704;51.260;22.558;2022-09-02T07:59:16;3.58;;;0.80;;
34459;SDS011;20704;51.260;22.558;2022-09-02T08:01:44;1.77;;;0.47;;
34459;SDS011;20704;51.260;22.558;2022-09-02T08:04:13;2.60;;;0.80;;
34459;SDS011;20704;51.260;22.558;2022-09-02T08:06:41;1.83;;;0.65;;
34459;SDS011;20704;51.260;22.558;2022-09-02T08:09:08;5.05;;;0.57;;
34459;SDS011;20704;51.260;22.558;2022-09-02T08:11:38;3.90;;;0.80;;
34459;SDS011;20704;51.260;22.558;2022-09-02T08:14:08;2.10;;;0.60;;
34459;SDS011;20704;51.260;22.558;2022-09-02T08:16:36;3.33;;;1.08;;
34459;SDS011;20704;51.260;22.558;2022-09-02T08:19:03;1.45;;;0.52;;
34459;SDS011;20704;51.260;22.558;2022-09-02T08:21:31;0.73;;;0.30;;
34459;SDS011;20704;51.260;22.558;2022-09-02T08:23:57;1.33;;;0.38;;
34459;SDS011;20704;51.260;22.558;2022-09-02T08:26:24;1.67;;;0.28;;
34459;SDS011;20704;51.260;22.558;2022-09-02T08:28:56;1.05;;;0.22;;
34459;SDS011;20704;51.260;22.558;2022-09-02T08:31:23;2.65;;;0.52;;
34459;SDS011;20704;51.260;22.558;2022-09-02T08:33:49;2.03;;;0.22;;
34459;SDS011;20704;51.260;22.558;2022-09-02T08:36:16;0.73;;;0.22;;
34459;SDS011;20704;51.260;22.558;2022-09-02T08:38:43;5.18;;;0.50;;
34459;SDS011;20704;51.260;22.558;2022-09-02T08:41:22;0.43;;;0.30;;
34459;SDS011;20704;51.260;22.558;2022-09-02T08:43:51;1.85;;;1.08;;
34459;SDS011;20704;51.260;22.558;2022-09-02T08:46:21;1.90;;;0.30;;
34459;SDS011;20704;51.260;22.558;2022-09-02T08:49:07;1.02;;;0.40;;
34459;SDS011;20704;51.260;22.558;2022-09-02T08:52:02;1.42;;;0.50;;
34459;SDS011;20704;51.260;22.558;2022-09-02T08:56:55;3.17;;;0.63;;
34459;SDS011;20704;51.260;22.558;2022-09-02T08:59:24;1.70;;;0.85;;
34459;SDS011;20704;51.260;22.558;2022-09-02T09:07:07;3.78;;;0.43;;
34459;SDS011;20704;51.260;22.558;2022-09-02T09:09:46;0.43;;;0.32;;
34459;SDS011;20704;51.260;22.558;2022-09-02T09:17:57;1.95;;;0.50;;
34459;SDS011;20704;51.260;22.558;2022-09-02T09:20:28;2.70;;;0.95;;
34459;SDS011;20704;51.260;22.558;2022-09-02T09:22:57;2.20;;;0.35;;
34459;SDS011;20704;51.260;22.558;2022-09-02T09:25:26;4.40;;;0.40;;
34459;SDS011;20704;51.260;22.558;2022-09-02T09:27:57;1.15;;;0.38;;
34459;SDS011;20704;51.260;22.558;2022-09-02T09:30:23;1.10;;;0.38;;
34459;SDS011;20704;51.260;22.558;2022-09-02T09:32:55;1.10;;;0.28;;
34459;SDS011;20704;51.260;22.558;2022-09-02T09:35:24;3.00;;;0.52;;
34459;SDS011;20704;51.260;22.558;2022-09-02T09:38:11;1.45;;;0.40;;
34459;SDS011;20704;51.260;22.558;2022-09-02T09:40:39;1.27;;;0.30;;
34459;SDS011;20704;51.260;22.558;2022-09-02T09:45:35;2.25;;;0.40;;
34459;SDS011;20704;51.260;22.558;2022-09-02T09:48:12;4.18;;;0.28;;
34459;SDS011;20704;51.260;22.558;2022-09-02T09:53:26;2.05;;;0.55;;
34459;SDS011;20704;51.260;22.558;2022-09-02T09:55:54;0.40;;;0.25;;
34459;SDS011;20704;51.260;22.558;2022-09-02T09:58:33;2.97;;;0.40;;
34459;SDS011;20704;51.260;22.558;2022-09-02T10:03:56;0.30;;;0.15;;
34459;SDS011;20704;51.260;22.558;2022-09-02T10:06:41;1.63;;;0.25;;
34459;SDS011;20704;51.260;22.558;2022-09-02T10:11:53;2.88;;;0.40;;
34459;SDS011;20704;51.260;22.558;2022-09-02T10:14:21;0.60;;;0.50;;
34459;SDS011;20704;51.260;22.558;2022-09-02T10:19:32;10.32;;;0.52;;
34459;SDS011;20704;51.260;22.558;2022-09-02T10:22:30;2.30;;;0.20;;
34459;SDS011;20704;51.260;22.558;2022-09-02T10:25:15;1.48;;;0.40;;
34459;SDS011;20704;51.260;22.558;2022-09-02T10:27:57;0.38;;;0.10;;
34459;SDS011;20704;51.260;22.558;2022-09-02T10:30:30;1.23;;;0.20;;
34459;SDS011;20704;51.260;22.558;2022-09-02T10:33:24;1.38;;;0.32;;
34459;SDS011;20704;51.260;22.558;2022-09-02T10:36:10;2.55;;;0.55;;
34459;SDS011;20704;51.260;22.558;2022-09-02T10:38:42;0.55;;;0.32;;
34459;SDS011;20704;51.260;22.558;2022-09-02T10:41:17;0.50;;;0.20;;
34459;SDS011;20704;51.260;22.558;2022-09-02T10:47:32;1.75;;;0.20;;
34459;SDS011;20704;51.260;22.558;2022-09-02T10:50:06;0.77;;;0.30;;
34459;SDS011;20704;51.260;22.558;2022-09-02T10:58:18;1.00;;;0.30;;
34459;SDS011;20704;51.260;22.558;2022-09-02T11:00:51;3.40;;;0.45;;
34459;SDS011;20704;51.260;22.558;2022-09-02T11:03:28;0.95;;;0.30;;
34459;SDS011;20704;51.260;22.558;2022-09-02T11:06:03;3.28;;;0.40;;
34459;SDS011;20704;51.260;22.558;2022-09-02T11:11:21;0.20;;;0.20;;
34459;SDS011;20704;51.260;22.558;2022-09-02T11:14:00;0.40;;;0.20;;
34459;SDS011;20704;51.260;22.558;2022-09-02T11:16:47;1.00;;;0.30;;
34459;SDS011;20704;51.260;22.558;2022-09-02T11:19:35;4.13;;;0.32;;
34459;SDS011;20704;51.260;22.558;2022-09-02T11:24:37;5.75;;;0.38;;
34459;SDS011;20704;51.260;22.558;2022-09-02T11:30:15;1.20;;;0.95;;
34459;SDS011;20704;51.260;22.558;2022-09-02T11:32:48;7.32;;;0.43;;
34459;SDS011;20704;51.260;22.558;2022-09-02T11:35:28;2.88;;;0.85;;
34459;SDS011;20704;51.260;22.558;2022-09-02T11:38:02;0.80;;;0.52;;
34459;SDS011;20704;51.260;22.558;2022-09-02T11:43:51;0.30;;;0.20;;
34459;SDS011;20704;51.260;22.558;2022-09-02T11:54:45;0.30;;;0.20;;
34459;SDS011;20704;51.260;22.558;2022-09-02T11:57:19;1.20;;;0.30;;
34459;SDS011;20704;51.260;22.558;2022-09-02T12:02:31;1.55;;;0.20;;
34459;SDS011;20704;51.260;22.558;2022-09-02T12:07:55;1.55;;;0.45;;
34459;SDS011;20704;51.260;22.558;2022-09-02T12:13:08;2.40;;;0.63;;
34459;SDS011;20704;51.260;22.558;2022-09-02T12:21:21;1.13;;;0.40;;
34459;SDS011;20704;51.260;22.558;2022-09-02T12:26:19;0.32;;;0.10;;
34459;SDS011;20704;51.260;22.558;2022-09-02T12:28:47;0.73;;;0.52;;
34459;SDS011;20704;51.260;22.558;2022-09-02T12:34:48;5.00;;;0.40;;
34459;SDS011;20704;51.260;22.558;2022-09-02T12:36:56;1.05;;;0.20;;
34459;SDS011;20704;51.260;22.558;2022-09-02T12:50:25;2.70;;;0.40;;
34459;SDS011;20704;51.260;22.558;2022-09-02T12:53:06;0.88;;;0.30;;
34459;SDS011;20704;51.260;22.558;2022-09-02T12:55:33;0.45;;;0.25;;
34459;SDS011;20704;51.260;22.558;2022-09-02T12:58:08;1.73;;;0.30;;
34459;SDS011;20704;51.260;22.558;2022-09-02T13:08:53;0.10;;;0.10;;
34459;SDS011;20704;51.260;22.558;2022-09-02T13:20:12;4.05;;;0.40;;
34459;SDS011;20704;51.260;22.558;2022-09-02T13:22:52;0.70;;;0.28;;
34459;SDS011;20704;51.260;22.558;2022-09-02T13:28:46;5.57;;;0.20;;
34459;SDS011;20704;51.260;22.558;2022-09-02T13:31:33;1.05;;;0.17;;
34459;SDS011;20704;51.260;22.558;2022-09-02T13:34:00;1.10;;;0.20;;
34459;SDS011;20704;51.260;22.558;2022-09-02T13:36:34;0.93;;;0.25;;
34459;SDS011;20704;51.260;22.558;2022-09-02T13:39:15;0.30;;;0.20;;
34459;SDS011;20704;51.260;22.558;2022-09-02T13:41:43;0.95;;;0.32;;
34459;SDS011;20704;51.260;22.558;2022-09-02T13:44:19;2.95;;;0.90;;
34459;SDS011;20704;51.260;22.558;2022-09-02T13:46:53;0.85;;;0.28;;
34459;SDS011;20704;51.260;22.558;2022-09-02T13:49:31;1.38;;;0.32;;
34459;SDS011;20704;51.260;22.558;2022-09-02T13:52:00;1.95;;;0.40;;
34459;SDS011;20704;51.260;22.558;2022-09-02T13:54:29;1.20;;;0.38;;
34459;SDS011;20704;51.260;22.558;2022-09-02T13:57:01;2.88;;;0.50;;
34459;SDS011;20704;51.260;22.558;2022-09-02T13:59:34;4.95;;;0.50;;
34459;SDS011;20704;51.260;22.558;2022-09-02T14:02:25;0.40;;;0.20;;
34459;SDS011;20704;51.260;22.558;2022-09-02T14:04:57;1.25;;;0.40;;
34459;SDS011;20704;51.260;22.558;2022-09-02T14:07:31;0.28;;;0.25;;
34459;SDS011;20704;51.260;22.558;2022-09-02T14:10:04;1.95;;;0.43;;
34459;SDS011;20704;51.260;22.558;2022-09-02T14:12:34;0.65;;;0.30;;
34459;SDS011;20704;51.260;22.558;2022-09-02T14:15:02;3.92;;;0.50;;
34459;SDS011;20704;51.260;22.558;2022-09-02T14:17:31;2.65;;;0.35;;
34459;SDS011;20704;51.260;22.558;2022-09-02T14:20:15;2.65;;;0.45;;
34459;SDS011;20704;51.260;22.558;2022-09-02T14:22:53;3.70;;;0.50;;
34459;SDS011;20704;51.260;22.558;2022-09-02T14:25:21;0.60;;;0.30;;
34459;SDS011;20704;51.260;22.558;2022-09-02T14:27:52;1.23;;;0.20;;
34459;SDS011;20704;51.260;22.558;2022-09-02T14:30:33;0.50;;;0.20;;
34459;SDS011;20704;51.260;22.558;2022-09-02T14:43:45;1.85;;;0.20;;
34459;SDS011;20704;51.260;22.558;2022-09-02T14:49:32;0.40;;;0.30;;
34459;SDS011;20704;51.260;22.558;2022-09-02T14:52:09;0.55;;;0.22;;
34459;SDS011;20704;51.260;22.558;2022-09-02T14:54:52;1.02;;;0.20;;
34459;SDS011;20704;51.260;22.558;2022-09-02T15:00:00;1.95;;;0.90;;
34459;SDS011;20704;51.260;22.558;2022-09-02T15:02:34;0.52;;;0.28;;
34459;SDS011;20704;51.260;22.558;2022-09-02T15:05:04;1.27;;;0.40;;
34459;SDS011;20704;51.260;22.558;2022-09-02T15:07:31;0.60;;;0.20;;
34459;SDS011;20704;51.260;22.558;2022-09-02T15:09:58;0.77;;;0.50;;
34459;SDS011;20704;51.260;22.558;2022-09-02T15:12:26;2.15;;;0.68;;
34459;SDS011;20704;51.260;22.558;2022-09-02T15:14:57;0.38;;;0.13;;
34459;SDS011;20704;51.260;22.558;2022-09-02T15:17:24;4.00;;;0.30;;
34459;SDS011;20704;51.260;22.558;2022-09-02T15:19:51;4.18;;;0.60;;
34459;SDS011;20704;51.260;22.558;2022-09-02T15:22:17;0.70;;;0.43;;
34459;SDS011;20704;51.260;22.558;2022-09-02T15:24:44;2.05;;;0.55;;
34459;SDS011;20704;51.260;22.558;2022-09-02T15:27:11;0.47;;;0.30;;
34459;SDS011;20704;51.260;22.558;2022-09-02T15:29:38;0.35;;;0.30;;
34459;SDS011;20704;51.260;22.558;2022-09-02T15:32:05;0.25;;;0.17;;
34459;SDS011;20704;51.260;22.558;2022-09-02T15:34:31;4.38;;;0.60;;
34459;SDS011;20704;51.260;22.558;2022-09-02T15:36:59;0.68;;;0.30;;
34459;SDS011;20704;51.260;22.558;2022-09-02T15:39:28;0.77;;;0.38;;
34459;SDS011;20704;51.260;22.558;2022-09-02T15:41:55;0.93;;;0.43;;
34459;SDS011;20704;51.260;22.558;2022-09-02T15:44:24;2.45;;;0.40;;
34459;SDS011;20704;51.260;22.558;2022-09-02T15:46:54;0.20;;;0.15;;
34459;SDS011;20704;51.260;22.558;2022-09-02T15:49:20;1.10;;;0.40;;
34459;SDS011;20704;51.260;22.558;2022-09-02T15:51:48;1.02;;;0.20;;
34459;SDS011;20704;51.260;22.558;2022-09-02T15:54:16;1.80;;;0.45;;
34459;SDS011;20704;51.260;22.558;2022-09-02T15:56:45;2.05;;;0.60;;
34459;SDS011;20704;51.260;22.558;2022-09-02T15:59:12;5.50;;;0.30;;
34459;SDS011;20704;51.260;22.558;2022-09-02T16:01:41;0.93;;;0.40;;
34459;SDS011;20704;51.260;22.558;2022-09-02T16:04:12;1.17;;;0.40;;
34459;SDS011;20704;51.260;22.558;2022-09-02T16:06:39;1.23;;;0.40;;
34459;SDS011;20704;51.260;22.558;2022-09-02T16:09:07;1.90;;;0.50;;
34459;SDS011;20704;51.260;22.558;2022-09-02T16:11:39;4.03;;;0.90;;
34459;SDS011;20704;51.260;22.558;2022-09-02T16:14:06;1.88;;;0.45;;
34459;SDS011;20704;51.260;22.558;2022-09-02T16:16:33;3.33;;;0.73;;
34459;SDS011;20704;51.260;22.558;2022-09-02T16:19:00;1.23;;;0.30;;
34459;SDS011;20704;51.260;22.558;2022-09-02T16:21:27;0.63;;;0.52;;
34459;SDS011;20704;51.260;22.558;2022-09-02T16:23:53;0.98;;;0.50;;
34459;SDS011;20704;51.260;22.558;2022-09-02T16:28:54;1.65;;;0.60;;
34459;SDS011;20704;51.260;22.558;2022-09-02T16:31:25;0.98;;;0.30;;
34459;SDS011;20704;51.260;22.558;2022-09-02T16:36:26;3.03;;;0.40;;
34459;SDS011;20704;51.260;22.558;2022-09-02T16:38:53;6.43;;;0.50;;
34459;SDS011;20704;51.260;22.558;2022-09-02T16:41:20;1.55;;;0.60;;
34459;SDS011;20704;51.260;22.558;2022-09-02T16:46:16;1.23;;;0.55;;
34459;SDS011;20704;51.260;22.558;2022-09-02T16:48:42;2.55;;;1.05;;
34459;SDS011;20704;51.260;22.558;2022-09-02T16:51:09;0.57;;;0.35;;
34459;SDS011;20704;51.260;22.558;2022-09-02T16:53:35;5.15;;;1.05;;
34459;SDS011;20704;51.260;22.558;2022-09-02T16:56:01;1.80;;;0.82;;
34459;SDS011;20704;51.260;22.558;2022-09-02T16:58:28;3.47;;;0.73;;
34459;SDS011;20704;51.260;22.558;2022-09-02T17:00:55;3.42;;;0.50;;
34459;SDS011;20704;51.260;22.558;2022-09-02T17:03:21;6.05;;;1.10;;
34459;SDS011;20704;51.260;22.558;2022-09-02T17:05:48;4.53;;;0.73;;